createdAt,value
2022-08-07T00:01:43.728Z,1.35
2022-08-07T00:04:06.107Z,1.55
2022-08-07T00:06:36.667Z,1.98
2022-08-07T00:09:17.109Z,1.80
2022-08-07T00:11:56.134Z,2.30
2022-08-07T00:14:30.260Z,2.00
2022-08-07T00:16:58.868Z,1.90
2022-08-07T00:19:59.892Z,1.80
2022-08-07T00:22:14.385Z,2.10
2022-08-07T00:24:52.172Z,1.88
2022-08-07T00:27:22.615Z,1.90
2022-08-07T00:29:49.923Z,1.55
2022-08-07T00:32:17.734Z,2.15
2022-08-07T00:34:55.441Z,1.65
2022-08-07T00:37:22.736Z,1.75
2022-08-07T00:39:54.257Z,2.10
2022-08-07T00:42:25.495Z,1.90
2022-08-07T00:44:56.489Z,1.35
2022-08-07T00:48:09.273Z,1.63
2022-08-07T00:50:20.813Z,1.42
2022-08-07T00:52:58.102Z,1.40
2022-08-07T00:56:00.766Z,1.65
2022-08-07T00:58:15.417Z,1.13
2022-08-07T01:00:53.408Z,1.40
2022-08-07T01:03:25.491Z,1.55
2022-08-07T01:06:09.278Z,1.20
2022-08-07T01:08:37.313Z,1.55
2022-08-07T01:12:05.021Z,1.73
2022-08-07T01:13:58.293Z,1.27
2022-08-07T01:16:30.062Z,1.50
2022-08-07T01:18:58.087Z,1.40
2022-08-07T01:21:28.473Z,1.50
2022-08-07T01:23:57.776Z,1.50
2022-08-07T01:26:26.040Z,1.65
2022-08-07T01:31:21.529Z,1.50
2022-08-07T01:33:55.675Z,1.60
2022-08-07T01:36:33.646Z,1.65
2022-08-07T01:39:09.811Z,1.63
2022-08-07T01:42:01.509Z,1.30
2022-08-07T01:44:28.626Z,1.40
2022-08-07T01:46:56.294Z,1.70
2022-08-07T01:49:23.501Z,1.48
2022-08-07T01:52:03.435Z,1.80
2022-08-07T01:54:36.861Z,1.85
2022-08-07T01:57:24.750Z,1.50
2022-08-07T02:00:13.675Z,1.70
2022-08-07T02:03:18.803Z,2.30
2022-08-07T02:05:48.320Z,2.05
2022-08-07T02:08:23.837Z,1.90
2022-08-07T02:10:58.050Z,2.10
2022-08-07T02:13:46.944Z,2.22
2022-08-07T02:16:15.211Z,2.10
2022-08-07T02:18:46.839Z,1.92
2022-08-07T02:21:16.380Z,2.15
2022-08-07T02:23:44.739Z,1.80
2022-08-07T02:26:32.969Z,1.80
2022-08-07T02:29:00.002Z,1.50
2022-08-07T02:31:28.699Z,1.50
2022-08-07T02:34:03.326Z,1.80
2022-08-07T02:36:39.499Z,1.70
2022-08-07T02:39:17.014Z,1.50
2022-08-07T02:41:57.353Z,1.40
2022-08-07T02:44:27.627Z,1.55
2022-08-07T02:47:04.046Z,1.40
2022-08-07T02:49:58.224Z,1.30
2022-08-07T02:52:21.630Z,1.80
2022-08-07T02:55:00.144Z,1.52
2022-08-07T02:57:30.998Z,1.50
2022-08-07T03:00:05.154Z,1.40
2022-08-07T03:02:54.115Z,1.33
2022-08-07T03:05:22.983Z,1.40
2022-08-07T03:08:07.811Z,1.58
2022-08-07T03:10:40.963Z,1.30
2022-08-07T03:13:19.526Z,1.58
2022-08-07T03:15:56.188Z,1.60
2022-08-07T03:18:24.489Z,1.80
2022-08-07T03:21:01.715Z,1.60
2022-08-07T03:23:34.127Z,1.55
2022-08-07T03:26:23.467Z,1.60
2022-08-07T03:28:51.570Z,1.30
2022-08-07T03:31:24.478Z,1.65
2022-08-07T03:34:18.471Z,1.48
2022-08-07T03:36:51.435Z,1.52
2022-08-07T03:39:59.948Z,1.58
2022-08-07T03:42:08.486Z,1.40
2022-08-07T03:44:36.743Z,1.48
2022-08-07T03:47:11.493Z,1.55
2022-08-07T03:49:47.931Z,1.77
2022-08-07T03:52:22.919Z,1.63
2022-08-07T03:54:57.432Z,1.60
2022-08-07T03:58:34.142Z,1.60
2022-08-07T04:00:29.328Z,1.73
2022-08-07T04:02:58.226Z,1.50
2022-08-07T04:05:28.786Z,1.65
2022-08-07T04:08:09.851Z,1.70
2022-08-07T04:10:38.674Z,1.60
2022-08-07T04:13:07.770Z,1.63
2022-08-07T04:15:43.048Z,1.70
2022-08-07T04:18:57.786Z,1.55
2022-08-07T04:20:59.373Z,1.63
2022-08-07T04:23:43.920Z,1.55
2022-08-07T04:26:14.738Z,1.60
2022-08-07T04:28:44.228Z,1.60
2022-08-07T04:31:20.060Z,1.60
2022-08-07T04:33:59.480Z,2.03
2022-08-07T04:36:26.668Z,1.80
2022-08-07T04:38:56.963Z,1.95
2022-08-07T04:41:25.550Z,1.80
2022-08-07T04:44:12.215Z,1.60
2022-08-07T04:47:09.230Z,1.40
2022-08-07T04:49:37.735Z,1.58
2022-08-07T04:52:12.027Z,1.20
2022-08-07T04:54:50.733Z,1.35
2022-08-07T04:58:16.886Z,1.42
2022-08-07T05:00:30.246Z,1.42
2022-08-07T05:03:16.684Z,1.10
2022-08-07T05:06:19.265Z,1.50
2022-08-07T05:09:03.445Z,1.30
2022-08-07T05:11:57.006Z,1.42
2022-08-07T05:14:52.167Z,1.50
2022-08-07T05:17:50.841Z,1.33
2022-08-07T05:20:09.449Z,1.50
2022-08-07T05:22:38.061Z,1.70
2022-08-07T05:25:08.730Z,1.23
2022-08-07T05:28:16.971Z,1.30
2022-08-07T05:30:32.661Z,1.55
2022-08-07T05:33:02.570Z,1.40
2022-08-07T05:35:33.564Z,1.50
2022-08-07T05:38:09.885Z,1.60
2022-08-07T05:40:50.591Z,1.70
2022-08-07T05:43:19.338Z,1.80
2022-08-07T05:46:06.650Z,1.60
2022-08-07T05:48:34.119Z,1.50
2022-08-07T05:51:02.180Z,1.80
2022-08-07T05:54:13.913Z,1.80
2022-08-07T05:56:19.199Z,1.95
2022-08-07T05:58:52.431Z,1.73
2022-08-07T06:01:20.732Z,2.05
2022-08-07T06:03:56.868Z,1.92
2022-08-07T06:06:30.026Z,1.90
2022-08-07T06:09:01.245Z,1.80
2022-08-07T06:11:33.237Z,2.03
2022-08-07T06:14:12.047Z,1.92
2022-08-07T06:16:50.334Z,2.10
2022-08-07T06:19:52.070Z,2.17
2022-08-07T06:22:14.367Z,2.30
2022-08-07T06:24:55.635Z,2.50
2022-08-07T06:27:59.868Z,2.70
2022-08-07T06:30:35.167Z,2.55
2022-08-07T06:33:00.989Z,2.53
2022-08-07T06:35:39.114Z,2.33
2022-08-07T06:38:19.894Z,2.55
2022-08-07T06:40:50.103Z,2.60
2022-08-07T06:43:21.681Z,2.20
2022-08-07T06:45:50.188Z,2.53
2022-08-07T06:48:24.779Z,2.60
2022-08-07T06:50:54.127Z,2.63
2022-08-07T06:55:29.694Z,2.53
2022-08-07T06:56:15.105Z,2.20
2022-08-07T07:00:12.030Z,2.40
2022-08-07T07:01:33.227Z,2.70
2022-08-07T07:04:33.056Z,2.40
2022-08-07T07:07:01.308Z,2.63
2022-08-07T07:09:30.962Z,2.20
2022-08-07T07:12:16.587Z,2.45
2022-08-07T07:15:08.965Z,2.13
2022-08-07T07:17:55.594Z,2.00
2022-08-07T07:20:28.418Z,1.90
2022-08-07T07:24:05.991Z,2.05
2022-08-07T07:26:34.549Z,2.20
2022-08-07T07:28:48.657Z,1.98
2022-08-07T07:31:27.050Z,1.90
2022-08-07T07:34:00.363Z,2.05
2022-08-07T07:36:32.406Z,2.03
2022-08-07T07:39:01.436Z,1.80
2022-08-07T07:41:30.899Z,2.10
2022-08-07T07:44:26.522Z,2.00
2022-08-07T07:47:02.199Z,1.60
2022-08-07T07:50:35.221Z,1.80
2022-08-07T07:52:31.231Z,1.83
2022-08-07T07:54:59.457Z,1.92
2022-08-07T07:57:51.705Z,2.03
2022-08-07T08:00:21.046Z,1.67
2022-08-07T08:03:04.977Z,1.60
2022-08-07T08:05:43.214Z,1.55
2022-08-07T08:08:36.304Z,1.50
2022-08-07T08:11:05.593Z,1.77
2022-08-07T08:13:43.840Z,1.67
2022-08-07T08:16:25.619Z,1.70
2022-08-07T08:18:55.367Z,1.92
2022-08-07T08:21:55.345Z,1.67
2022-08-07T08:24:57.103Z,1.90
2022-08-07T08:27:26.102Z,1.95
2022-08-07T08:30:14.430Z,1.80
2022-08-07T08:32:57.832Z,1.80
2022-08-07T08:35:28.822Z,1.85
2022-08-07T08:38:01.338Z,2.10
2022-08-07T08:40:32.328Z,1.90
2022-08-07T08:43:04.781Z,2.00
2022-08-07T08:46:00.875Z,1.80
2022-08-07T08:48:44.335Z,1.70
2022-08-07T08:51:49.242Z,1.90
2022-08-07T08:54:13.453Z,1.85
2022-08-07T08:56:47.214Z,1.73
2022-08-07T08:59:47.885Z,1.70
2022-08-07T09:02:37.619Z,1.80
2022-08-07T09:05:26.377Z,1.50
2022-08-07T09:08:11.841Z,1.98
2022-08-07T09:11:06.844Z,1.90
2022-08-07T09:13:37.694Z,1.83
2022-08-07T09:16:22.439Z,1.92
2022-08-07T09:19:52.794Z,1.77
2022-08-07T09:24:29.017Z,1.65
2022-08-07T09:25:11.902Z,1.55
2022-08-07T09:28:05.277Z,1.70
2022-08-07T09:31:11.576Z,1.77
2022-08-07T09:34:01.483Z,1.83
2022-08-07T09:36:42.784Z,1.38
2022-08-07T09:39:54.506Z,1.45
2022-08-07T09:42:30.378Z,1.60
2022-08-07T09:47:50.136Z,1.58
2022-08-07T09:48:07.430Z,1.67
2022-08-07T09:50:52.289Z,1.60
2022-08-07T09:53:22.548Z,1.50
2022-08-07T09:56:09.309Z,1.60
2022-08-07T09:58:58.338Z,1.35
2022-08-07T10:01:51.905Z,1.60
2022-08-07T10:04:33.541Z,1.55
2022-08-07T10:07:39.887Z,1.50
2022-08-07T10:10:21.994Z,1.40
2022-08-07T10:13:03.670Z,1.50
2022-08-07T10:15:30.851Z,1.58
2022-08-07T10:18:30.044Z,1.38
2022-08-07T10:21:19.763Z,1.50
2022-08-07T10:24:06.855Z,1.40
2022-08-07T10:26:37.153Z,1.40
2022-08-07T10:29:16.694Z,1.55
2022-08-07T10:31:49.598Z,1.25
2022-08-07T10:34:37.669Z,1.40
2022-08-07T10:37:22.290Z,1.17
2022-08-07T10:40:30.056Z,1.30
2022-08-07T10:43:06.517Z,1.55
2022-08-07T10:45:57.120Z,1.27
2022-08-07T10:48:25.703Z,1.33
2022-08-07T10:51:16.392Z,1.67
2022-08-07T10:54:01.548Z,1.40
2022-08-07T10:56:41.247Z,1.45
2022-08-07T10:59:30.329Z,1.27
2022-08-07T11:02:02.768Z,1.38
2022-08-07T11:04:57.562Z,1.40
2022-08-07T11:07:59.424Z,1.10
2022-08-07T11:10:19.979Z,1.23
2022-08-07T11:13:02.051Z,1.30
2022-08-07T11:15:31.973Z,1.27
2022-08-07T11:18:03.333Z,1.30
2022-08-07T11:20:37.396Z,1.23
2022-08-07T11:23:36.607Z,1.23
2022-08-07T11:26:09.425Z,1.40
2022-08-07T11:28:43.612Z,1.45
2022-08-07T11:31:24.426Z,1.33
2022-08-07T11:34:06.302Z,1.20
2022-08-07T11:36:44.385Z,1.33
2022-08-07T11:39:19.522Z,1.15
2022-08-07T11:42:02.143Z,1.20
2022-08-07T11:44:37.060Z,1.60
2022-08-07T11:47:23.539Z,1.05
2022-08-07T11:50:30.948Z,1.30
2022-08-07T11:53:15.232Z,1.50
2022-08-07T11:56:25.714Z,1.30
2022-08-07T11:58:45.735Z,1.20
2022-08-07T12:01:59.034Z,1.33
2022-08-07T12:04:34.074Z,1.23
2022-08-07T12:07:17.358Z,1.30
2022-08-07T12:09:59.464Z,1.40
2022-08-07T12:12:36.160Z,1.40
2022-08-07T12:15:46.278Z,1.17
2022-08-07T12:18:12.035Z,1.65
2022-08-07T12:20:46.496Z,1.25
2022-08-07T12:24:04.921Z,1.45
2022-08-07T12:26:41.943Z,1.85
2022-08-07T12:29:37.231Z,1.27
2022-08-07T12:34:42.107Z,1.40
2022-08-07T12:37:23.568Z,1.50
2022-08-07T12:39:58.748Z,1.77
2022-08-07T12:42:28.552Z,1.30
2022-08-07T12:45:05.751Z,1.60
2022-08-07T12:47:57.156Z,1.60
2022-08-07T12:50:38.372Z,1.65
2022-08-07T12:53:18.260Z,1.88
2022-08-07T12:56:09.130Z,2.00
2022-08-07T12:58:39.566Z,1.85
2022-08-07T13:01:09.077Z,1.80
2022-08-07T13:03:54.815Z,1.83
2022-08-07T13:06:54.416Z,1.73
2022-08-07T13:10:19.925Z,1.90
2022-08-07T13:12:36.379Z,2.13
2022-08-07T13:15:23.594Z,2.17
2022-08-07T13:18:06.726Z,2.30
2022-08-07T13:20:41.126Z,2.20
2022-08-07T13:24:01.020Z,2.53
2022-08-07T13:26:06.201Z,2.63
2022-08-07T13:28:45.094Z,2.47
2022-08-07T13:31:17.426Z,2.33
2022-08-07T13:34:33.975Z,2.08
2022-08-07T13:36:53.513Z,2.60
2022-08-07T13:40:34.231Z,2.50
2022-08-07T13:42:25.231Z,3.20
2022-08-07T13:44:55.318Z,3.20
2022-08-07T13:48:07.645Z,2.97
2022-08-07T13:50:35.197Z,2.20
2022-08-07T13:53:19.356Z,2.40
2022-08-07T13:55:54.512Z,2.13
2022-08-07T13:58:56.270Z,2.55
2022-08-07T14:01:25.176Z,2.28
2022-08-07T14:04:07.397Z,2.20
2022-08-07T14:06:36.736Z,2.13
2022-08-07T14:09:06.464Z,1.92
2022-08-07T14:11:53.429Z,2.17
2022-08-07T14:14:31.276Z,1.90
2022-08-07T14:17:32.286Z,2.15
2022-08-07T14:20:42.099Z,2.00
2022-08-07T14:23:02.680Z,1.50
2022-08-07T14:25:39.271Z,1.90
2022-08-07T14:28:11.203Z,1.90
2022-08-07T14:30:40.946Z,1.90
2022-08-07T14:33:08.724Z,1.70
2022-08-07T14:35:43.253Z,2.10
2022-08-07T14:38:26.564Z,1.80
2022-08-07T14:40:59.639Z,1.60
2022-08-07T14:43:58.983Z,1.52
2022-08-07T14:46:31.052Z,1.40
2022-08-07T14:49:55.991Z,1.50
2022-08-07T14:52:03.278Z,1.20
2022-08-07T14:54:35.676Z,1.13
2022-08-07T14:57:04.537Z,1.55
2022-08-07T15:00:04.979Z,1.73
2022-08-07T15:02:31.995Z,1.60
2022-08-07T15:05:02.650Z,1.55
2022-08-07T15:07:47.581Z,1.30
2022-08-07T15:10:26.248Z,1.52
2022-08-07T15:15:53.463Z,1.48
2022-08-07T15:18:34.139Z,1.58
2022-08-07T15:21:08.305Z,1.95
2022-08-07T15:25:16.313Z,1.48
2022-08-07T15:26:56.252Z,1.90
2022-08-07T15:30:08.903Z,1.73
2022-08-07T15:32:12.724Z,1.50
2022-08-07T15:34:59.166Z,1.55
2022-08-07T15:38:04.740Z,1.50
2022-08-07T15:40:34.502Z,1.67
2022-08-07T15:43:53.214Z,1.73
2022-08-07T15:46:32.489Z,1.50
2022-08-07T15:49:12.583Z,1.40
2022-08-07T15:54:28.132Z,2.92
2022-08-07T15:56:59.974Z,4.10
2022-08-07T15:59:38.941Z,2.38
2022-08-07T16:02:09.035Z,1.80
2022-08-07T16:04:37.926Z,1.83
2022-08-07T16:08:31.519Z,2.17
2022-08-07T16:09:57.866Z,1.92
2022-08-07T16:12:39.912Z,2.00
2022-08-07T16:15:55.048Z,1.90
2022-08-07T16:18:50.038Z,2.10
2022-08-07T16:21:56.860Z,2.22
2022-08-07T16:24:37.812Z,2.72
2022-08-07T16:27:19.648Z,2.00
2022-08-07T16:30:09.640Z,2.00
2022-08-07T16:32:46.365Z,3.10
2022-08-07T16:35:51.700Z,8.20
2022-08-07T16:39:00.123Z,1.95
2022-08-07T16:41:48.537Z,2.30
2022-08-07T16:44:47.547Z,3.13
2022-08-07T16:47:49.703Z,3.28
2022-08-07T16:50:35.808Z,2.47
2022-08-07T16:54:01.977Z,5.95
2022-08-07T16:56:12.609Z,2.00
2022-08-07T16:59:10.070Z,2.05
2022-08-07T17:01:36.052Z,2.20
2022-08-07T17:04:14.037Z,1.85
2022-08-07T17:07:04.519Z,2.20
2022-08-07T17:10:07.090Z,2.50
2022-08-07T17:12:37.776Z,2.42
2022-08-07T17:15:21.506Z,2.08
2022-08-07T17:17:48.577Z,2.40
2022-08-07T17:20:29.797Z,1.85
2022-08-07T17:23:01.703Z,1.67
2022-08-07T17:25:45.799Z,2.13
2022-08-07T17:28:19.472Z,2.10
2022-08-07T17:30:58.371Z,1.88
2022-08-07T17:34:09.338Z,1.70
2022-08-07T17:36:28.974Z,1.42
2022-08-07T17:39:10.566Z,2.28
2022-08-07T17:42:02.121Z,1.60
2022-08-07T17:44:45.372Z,2.10
2022-08-07T17:47:38.155Z,2.30
2022-08-07T17:50:19.902Z,1.50
2022-08-07T17:52:50.045Z,2.15
2022-08-07T17:56:00.503Z,1.70
2022-08-07T17:58:30.091Z,2.35
2022-08-07T18:00:58.335Z,2.30
2022-08-07T18:04:06.876Z,2.53
2022-08-07T18:06:38.546Z,2.40
2022-08-07T18:09:08.783Z,2.42
2022-08-07T18:12:17.931Z,2.35
2022-08-07T18:14:53.561Z,2.25
2022-08-07T18:18:45.694Z,2.00
2022-08-07T18:21:10.626Z,2.40
2022-08-07T18:23:41.008Z,2.50
2022-08-07T18:26:04.085Z,2.10
2022-08-07T18:29:01.640Z,2.10
2022-08-07T18:31:41.159Z,2.20
2022-08-07T18:35:01.172Z,2.20
2022-08-07T18:38:57.754Z,2.20
2022-08-07T18:40:42.233Z,2.30
2022-08-07T18:43:11.030Z,2.80
2022-08-07T18:46:24.529Z,2.33
2022-08-07T18:50:30.159Z,2.40
2022-08-07T18:52:34.674Z,2.42
2022-08-07T18:54:32.991Z,2.10
2022-08-07T18:57:39.983Z,2.00
2022-08-07T19:00:34.389Z,2.47
2022-08-07T19:03:11.689Z,2.55
2022-08-07T19:06:03.426Z,2.83
2022-08-07T19:08:38.015Z,2.50
2022-08-07T19:11:15.466Z,2.50
2022-08-07T19:14:17.284Z,2.70
2022-08-07T19:17:05.580Z,2.83
2022-08-07T19:19:42.499Z,2.60
2022-08-07T19:22:31.213Z,2.83
2022-08-07T19:25:06.453Z,2.80
2022-08-07T19:28:58.489Z,2.92
2022-08-07T19:31:03.117Z,2.90
2022-08-07T19:33:15.561Z,2.92
2022-08-07T19:35:44.313Z,3.50
2022-08-07T19:38:16.104Z,2.80
2022-08-07T19:40:50.016Z,2.50
2022-08-07T19:43:48.660Z,2.72
2022-08-07T19:46:15.671Z,2.65
2022-08-07T19:48:54.075Z,2.70
2022-08-07T19:51:51.221Z,2.92
2022-08-07T19:54:32.372Z,2.35
2022-08-07T19:58:03.352Z,2.72
2022-08-07T19:59:54.151Z,2.50
2022-08-07T20:02:32.861Z,2.90
2022-08-07T20:05:02.324Z,3.58
2022-08-07T20:07:45.996Z,3.38
2022-08-07T20:10:36.826Z,3.10
2022-08-07T20:13:06.083Z,3.25
2022-08-07T20:15:37.047Z,3.35
2022-08-07T20:18:06.137Z,3.00
2022-08-07T20:20:42.435Z,3.15
2022-08-07T20:23:23.114Z,2.88
2022-08-07T20:26:03.008Z,2.85
2022-08-07T20:28:31.664Z,3.40
2022-08-07T20:30:59.853Z,3.40
2022-08-07T20:33:36.846Z,3.28
2022-08-07T20:36:07.089Z,3.40
2022-08-07T20:38:35.568Z,2.90
2022-08-07T20:41:25.459Z,3.83
2022-08-07T20:43:57.522Z,3.65
2022-08-07T20:46:32.517Z,3.90
2022-08-07T20:49:58.337Z,3.47
2022-08-07T20:51:51.138Z,3.58
2022-08-07T20:54:29.700Z,3.85
2022-08-07T20:57:00.789Z,4.00
2022-08-07T21:00:06.969Z,5.47
2022-08-07T21:02:40.462Z,4.38
2022-08-07T21:05:43.016Z,4.00
2022-08-07T21:08:14.682Z,4.80
2022-08-07T21:10:43.708Z,3.78
2022-08-07T21:13:12.824Z,4.38
2022-08-07T21:15:48.036Z,4.68
2022-08-07T21:18:33.384Z,5.68
2022-08-07T21:21:01.970Z,4.25
2022-08-07T21:23:50.213Z,4.65
2022-08-07T21:26:36.654Z,6.15
2022-08-07T21:29:15.696Z,4.03
2022-08-07T21:32:42.112Z,5.25
2022-08-07T21:34:48.561Z,4.63
2022-08-07T21:37:31.613Z,5.65
2022-08-07T21:40:35.891Z,3.50
2022-08-07T21:43:10.827Z,3.45
2022-08-07T21:46:10.051Z,4.20
2022-08-07T21:48:56.472Z,3.72
2022-08-07T21:51:32.079Z,3.45
2022-08-07T21:54:13.637Z,3.80
2022-08-07T21:57:06.124Z,3.78
2022-08-07T22:00:03.520Z,3.75
2022-08-07T22:02:55.962Z,3.55
2022-08-07T22:05:45.822Z,3.45
2022-08-07T22:08:18.820Z,3.67
2022-08-07T22:10:49.759Z,3.30
2022-08-07T22:13:17.407Z,4.03
2022-08-07T22:18:45.173Z,3.40
2022-08-07T22:22:02.275Z,3.72
2022-08-07T22:24:23.090Z,3.30
2022-08-07T22:27:05.273Z,3.60
2022-08-07T22:29:51.604Z,4.00
2022-08-07T22:34:52.965Z,3.72
2022-08-07T22:38:03.286Z,3.13
2022-08-07T22:40:28.078Z,3.60
2022-08-07T22:42:59.610Z,3.70
2022-08-07T22:46:04.846Z,3.60
2022-08-07T22:48:54.928Z,4.30
2022-08-07T22:51:16.966Z,4.13
2022-08-07T22:54:06.746Z,4.13
2022-08-07T22:56:36.181Z,3.85
2022-08-07T22:59:15.440Z,3.40
2022-08-07T23:01:50.985Z,4.25
2022-08-07T23:04:31.063Z,3.53
2022-08-07T23:07:40.432Z,4.20
2022-08-07T23:10:37.656Z,3.80
2022-08-07T23:13:19.299Z,3.42
2022-08-07T23:16:06.452Z,3.92
2022-08-07T23:18:45.054Z,3.92
2022-08-07T23:21:22.964Z,3.65
2022-08-07T23:24:11.984Z,3.88
2022-08-07T23:26:50.391Z,3.38
2022-08-07T23:30:37.970Z,3.47
2022-08-07T23:34:34.806Z,3.97
2022-08-07T23:36:03.588Z,4.20
2022-08-07T23:38:46.039Z,3.85
2022-08-07T23:42:01.817Z,3.70
2022-08-07T23:44:29.341Z,3.83
2022-08-07T23:47:16.211Z,4.35
2022-08-07T23:50:03.484Z,3.70
2022-08-07T23:53:00.474Z,3.95
2022-08-07T23:55:52.547Z,3.75
2022-08-07T23:58:38.306Z,3.42
